createdAt,value
2022-11-27T00:01:36.291Z,5.13
2022-11-27T00:04:06.106Z,5.57
2022-11-27T00:06:35.441Z,4.50
2022-11-27T00:09:09.061Z,4.37
2022-11-27T00:11:40.140Z,4.30
2022-11-27T00:14:11.852Z,4.50
2022-11-27T00:16:40.345Z,5.77
2022-11-27T00:19:09.042Z,8.43
2022-11-27T00:21:38.046Z,7.27
2022-11-27T00:24:10.177Z,9.20
2022-11-27T00:26:38.711Z,9.30
2022-11-27T00:29:08.335Z,9.43
2022-11-27T00:31:38.238Z,9.10
2022-11-27T00:34:09.357Z,8.47
2022-11-27T00:36:38.080Z,8.30
2022-11-27T00:39:07.556Z,14.70
2022-11-27T00:41:36.313Z,7.90
2022-11-27T00:44:05.220Z,10.37
2022-11-27T00:46:35.551Z,12.50
2022-11-27T00:49:06.068Z,12.83
2022-11-27T00:51:35.037Z,11.00
2022-11-27T00:54:03.728Z,9.00
2022-11-27T00:56:35.539Z,9.83
2022-11-27T00:59:04.771Z,11.90
2022-11-27T01:01:37.054Z,12.57
2022-11-27T01:04:07.316Z,12.80
2022-11-27T01:06:36.340Z,12.17
2022-11-27T01:09:06.020Z,11.60
2022-11-27T01:11:35.938Z,14.33
2022-11-27T01:14:08.172Z,20.90
2022-11-27T01:16:42.601Z,20.43
2022-11-27T01:19:13.356Z,21.43
2022-11-27T01:21:41.822Z,18.13
2022-11-27T01:24:11.894Z,16.93
2022-11-27T01:26:40.562Z,17.30
2022-11-27T01:29:09.093Z,16.07
2022-11-27T01:31:37.905Z,19.80
2022-11-27T01:34:09.613Z,19.77
2022-11-27T01:36:38.161Z,14.40
2022-11-27T01:39:06.998Z,14.70
2022-11-27T01:41:41.993Z,16.60
2022-11-27T01:44:25.453Z,16.47
2022-11-27T01:46:53.850Z,20.33
2022-11-27T01:49:22.184Z,19.50
2022-11-27T01:51:56.772Z,16.37
2022-11-27T01:54:33.401Z,17.50
2022-11-27T01:57:09.005Z,21.37
2022-11-27T01:59:37.520Z,22.37
2022-11-27T02:02:06.149Z,23.80
2022-11-27T02:04:34.672Z,19.77
2022-11-27T02:07:03.445Z,16.73
2022-11-27T02:09:32.812Z,15.40
2022-11-27T02:12:18.875Z,11.03
2022-11-27T02:15:00.920Z,10.67
2022-11-27T02:17:56.645Z,9.40
2022-11-27T02:20:59.114Z,9.27
2022-11-27T02:23:42.665Z,9.50
2022-11-27T02:26:46.358Z,9.23
2022-11-27T02:29:19.296Z,13.07
2022-11-27T02:32:18.469Z,10.87
2022-11-27T02:34:58.642Z,10.90
2022-11-27T02:37:37.301Z,14.67
2022-11-27T02:40:09.322Z,14.43
2022-11-27T02:42:44.598Z,11.03
2022-11-27T02:45:19.975Z,10.50
2022-11-27T02:47:49.565Z,8.60
2022-11-27T02:50:25.587Z,9.27
2022-11-27T02:53:00.047Z,8.50
2022-11-27T02:55:33.001Z,9.50
2022-11-27T02:58:04.158Z,8.60
2022-11-27T03:00:35.225Z,9.30
2022-11-27T03:03:10.264Z,7.70
2022-11-27T03:05:43.427Z,10.30
2022-11-27T03:08:22.103Z,11.40
2022-11-27T03:10:58.454Z,13.10
2022-11-27T03:13:27.180Z,12.30
2022-11-27T03:16:11.004Z,13.50
2022-11-27T03:18:45.725Z,13.47
2022-11-27T03:21:41.530Z,14.60
2022-11-27T03:24:11.155Z,16.87
2022-11-27T03:26:40.757Z,16.63
2022-11-27T03:29:16.238Z,16.60
2022-11-27T03:31:45.619Z,15.87
2022-11-27T03:34:14.277Z,20.83
2022-11-27T03:36:42.962Z,18.37
2022-11-27T03:39:11.365Z,17.80
2022-11-27T03:42:13.944Z,15.47
2022-11-27T03:45:13.519Z,16.83
2022-11-27T03:47:53.743Z,15.77
2022-11-27T03:50:43.500Z,15.60
2022-11-27T03:53:26.533Z,14.10
2022-11-27T03:56:19.167Z,15.80
2022-11-27T03:59:18.196Z,17.50
2022-11-27T04:01:46.851Z,21.60
2022-11-27T04:04:15.495Z,18.23
2022-11-27T04:06:44.054Z,17.50
2022-11-27T04:09:12.386Z,17.50
2022-11-27T04:11:40.754Z,19.50
2022-11-27T04:14:09.223Z,17.30
2022-11-27T04:16:37.648Z,15.80
2022-11-27T04:19:06.088Z,15.43
2022-11-27T04:21:34.471Z,18.80
2022-11-27T04:24:02.852Z,19.87
2022-11-27T04:26:31.208Z,16.33
2022-11-27T04:28:59.617Z,20.23
2022-11-27T04:31:28.018Z,21.13
2022-11-27T04:33:56.426Z,23.20
2022-11-27T04:36:24.802Z,19.70
2022-11-27T04:38:53.767Z,19.83
2022-11-27T04:41:22.116Z,19.80
2022-11-27T04:43:50.507Z,16.20
2022-11-27T04:46:18.891Z,17.63
2022-11-27T04:48:47.238Z,14.73
2022-11-27T04:51:15.708Z,14.13
2022-11-27T04:53:44.094Z,11.50
2022-11-27T04:56:12.460Z,12.00
2022-11-27T04:58:40.916Z,13.53
2022-11-27T05:01:12.379Z,11.20
2022-11-27T05:03:40.852Z,13.17
2022-11-27T05:06:09.831Z,12.33
2022-11-27T05:08:38.204Z,11.37
2022-11-27T05:11:15.216Z,12.50
2022-11-27T05:13:44.681Z,11.50
2022-11-27T05:16:13.455Z,11.67
2022-11-27T05:18:41.889Z,12.40
2022-11-27T05:21:10.338Z,13.63
2022-11-27T05:23:38.687Z,14.30
2022-11-27T05:26:07.113Z,11.80
2022-11-27T05:28:35.763Z,10.73
2022-11-27T05:31:04.274Z,13.03
2022-11-27T05:33:32.708Z,13.67
2022-11-27T05:36:01.085Z,15.07
2022-11-27T05:38:29.439Z,13.73
2022-11-27T05:40:58.027Z,13.90
2022-11-27T05:43:26.429Z,14.57
2022-11-27T05:45:54.837Z,13.03
2022-11-27T05:48:23.258Z,11.07
2022-11-27T05:50:51.640Z,11.00
2022-11-27T05:53:19.998Z,11.20
2022-11-27T05:55:48.340Z,9.20
2022-11-27T05:58:16.720Z,9.37
2022-11-27T06:00:45.360Z,8.70
2022-11-27T06:03:13.771Z,10.63
2022-11-27T06:05:43.217Z,10.10
2022-11-27T06:08:11.588Z,10.30
2022-11-27T06:10:41.017Z,9.90
2022-11-27T06:13:09.506Z,9.10
2022-11-27T06:15:39.232Z,8.20
2022-11-27T06:18:08.253Z,8.00
2022-11-27T06:20:40.823Z,8.20
2022-11-27T06:23:11.841Z,8.77
2022-11-27T06:25:40.268Z,6.73
2022-11-27T06:28:08.634Z,6.93
2022-11-27T06:30:39.140Z,6.87
2022-11-27T06:33:07.553Z,7.80
2022-11-27T06:35:35.928Z,8.17
2022-11-27T06:38:04.285Z,7.67
2022-11-27T06:40:32.716Z,8.10
2022-11-27T06:43:01.105Z,7.37
2022-11-27T06:45:29.515Z,8.33
2022-11-27T06:47:57.908Z,7.03
2022-11-27T06:50:27.196Z,8.83
2022-11-27T06:52:55.671Z,8.40
2022-11-27T06:55:24.045Z,6.83
2022-11-27T06:57:52.572Z,8.50
2022-11-27T07:00:21.401Z,7.90
2022-11-27T07:02:54.405Z,8.93
2022-11-27T07:05:22.923Z,8.40
2022-11-27T07:07:51.454Z,7.73
2022-11-27T07:10:19.893Z,8.43
2022-11-27T07:12:48.425Z,8.00
2022-11-27T07:15:16.845Z,8.53
2022-11-27T07:17:45.294Z,7.60
2022-11-27T07:20:14.006Z,7.57
2022-11-27T07:22:42.496Z,8.47
2022-11-27T07:25:11.271Z,7.60
2022-11-27T07:27:39.620Z,7.60
2022-11-27T07:30:08.652Z,7.83
2022-11-27T07:32:37.055Z,7.30
2022-11-27T07:35:05.580Z,8.13
2022-11-27T07:37:34.584Z,7.43
2022-11-27T07:40:03.553Z,8.10
2022-11-27T07:42:39.562Z,7.13
2022-11-27T07:45:12.359Z,7.67
2022-11-27T07:47:41.305Z,7.10
2022-11-27T07:50:10.635Z,8.23
2022-11-27T07:52:42.071Z,7.33
2022-11-27T07:55:11.293Z,6.97
2022-11-27T07:57:39.699Z,6.70
2022-11-27T08:00:08.884Z,7.30
2022-11-27T08:02:37.236Z,6.40
2022-11-27T08:05:10.909Z,6.23
2022-11-27T08:07:41.275Z,7.33
2022-11-27T08:10:10.223Z,6.40
2022-11-27T08:12:38.572Z,5.53
2022-11-27T08:15:07.503Z,6.87
2022-11-27T08:17:35.951Z,7.10
2022-11-27T08:20:05.136Z,6.23
2022-11-27T08:22:33.608Z,6.20
2022-11-27T08:25:01.972Z,7.23
2022-11-27T08:27:33.885Z,5.50
2022-11-27T08:30:02.312Z,5.83
2022-11-27T08:32:30.677Z,6.47
2022-11-27T08:34:59.896Z,5.50
2022-11-27T08:37:28.242Z,5.10
2022-11-27T08:39:56.655Z,5.70
2022-11-27T08:42:25.036Z,4.67
2022-11-27T08:44:53.421Z,4.67
2022-11-27T08:47:21.768Z,5.27
2022-11-27T08:49:50.204Z,4.57
2022-11-27T08:52:18.764Z,4.47
2022-11-27T08:54:49.248Z,5.13
2022-11-27T08:57:19.320Z,4.40
2022-11-27T08:59:47.695Z,4.53
2022-11-27T09:02:16.073Z,4.07
2022-11-27T09:04:44.640Z,4.03
2022-11-27T09:07:15.059Z,4.60
2022-11-27T09:09:43.519Z,4.33
2022-11-27T09:12:11.911Z,4.30
2022-11-27T09:14:40.928Z,4.57
2022-11-27T09:17:09.525Z,4.70
2022-11-27T09:19:37.919Z,4.17
2022-11-27T09:22:06.349Z,4.40
2022-11-27T09:24:34.709Z,4.63
2022-11-27T09:27:03.132Z,5.03
2022-11-27T09:29:31.516Z,5.03
2022-11-27T09:32:00.031Z,4.50
2022-11-27T09:34:30.466Z,4.90
2022-11-27T09:37:00.624Z,4.50
2022-11-27T09:39:34.141Z,4.00
2022-11-27T09:42:07.434Z,4.63
2022-11-27T09:44:41.489Z,4.50
2022-11-27T09:47:13.148Z,3.70
2022-11-27T09:49:59.891Z,6.57
2022-11-27T09:52:40.036Z,3.83
2022-11-27T09:55:14.421Z,4.27
2022-11-27T09:57:43.788Z,4.40
2022-11-27T10:00:22.080Z,4.20
2022-11-27T10:02:50.636Z,3.97
2022-11-27T10:05:40.029Z,3.20
2022-11-27T10:08:54.230Z,3.63
2022-11-27T10:11:33.312Z,3.47
2022-11-27T10:14:38.958Z,3.30
2022-11-27T10:17:17.815Z,4.33
2022-11-27T10:20:13.829Z,2.57
2022-11-27T10:22:51.226Z,3.17
2022-11-27T10:25:26.249Z,3.43
2022-11-27T10:28:07.714Z,3.53
2022-11-27T10:30:43.027Z,3.50
2022-11-27T10:33:19.748Z,3.53
2022-11-27T10:35:50.326Z,4.90
2022-11-27T10:38:27.362Z,3.70
2022-11-27T10:41:18.597Z,3.80
2022-11-27T10:44:07.093Z,4.60
2022-11-27T10:46:40.161Z,4.57
2022-11-27T10:49:09.836Z,4.70
2022-11-27T10:51:42.108Z,4.10
2022-11-27T10:54:38.459Z,3.87
2022-11-27T10:57:36.553Z,4.10
2022-11-27T11:00:15.885Z,4.23
2022-11-27T11:02:44.502Z,4.30
2022-11-27T11:05:40.952Z,4.07
2022-11-27T11:08:22.727Z,4.67
2022-11-27T11:11:00.952Z,4.70
2022-11-27T11:13:43.539Z,4.23
2022-11-27T11:16:24.724Z,4.10
2022-11-27T11:18:56.463Z,5.03
2022-11-27T11:21:29.913Z,3.27
2022-11-27T11:24:08.256Z,4.27
2022-11-27T11:26:47.545Z,4.37
2022-11-27T11:29:31.324Z,4.33
2022-11-27T11:32:06.578Z,4.30
2022-11-27T11:34:35.605Z,3.67
2022-11-27T11:37:07.859Z,4.30
2022-11-27T11:39:45.365Z,4.33
2022-11-27T11:42:31.937Z,4.83
2022-11-27T11:45:12.521Z,4.03
2022-11-27T11:47:59.596Z,4.03
2022-11-27T11:51:02.458Z,4.10
2022-11-27T11:53:38.311Z,4.30
2022-11-27T11:56:12.741Z,4.00
2022-11-27T11:59:05.669Z,3.93
2022-11-27T12:01:54.795Z,4.17
2022-11-27T12:05:04.414Z,4.13
2022-11-27T12:07:51.992Z,4.33
2022-11-27T12:10:36.051Z,4.20
2022-11-27T12:13:33.533Z,4.23
2022-11-27T12:16:23.800Z,3.23
2022-11-27T12:18:59.639Z,4.17
2022-11-27T12:21:56.716Z,4.00
2022-11-27T12:24:39.974Z,4.60
2022-11-27T12:27:44.897Z,3.83
2022-11-27T12:30:25.133Z,3.00
2022-11-27T12:32:59.729Z,4.17
2022-11-27T12:35:34.308Z,3.90
2022-11-27T12:38:28.850Z,2.90
2022-11-27T12:41:12.239Z,3.97
2022-11-27T12:43:47.439Z,3.63
2022-11-27T12:46:38.395Z,2.90
2022-11-27T12:49:30.973Z,3.07
2022-11-27T12:52:11.445Z,2.97
2022-11-27T12:54:52.423Z,2.90
2022-11-27T12:57:42.133Z,2.43
2022-11-27T13:00:20.803Z,2.67
2022-11-27T13:03:24.145Z,2.83
2022-11-27T13:05:52.584Z,3.13
2022-11-27T13:08:30.048Z,2.77
2022-11-27T13:11:10.925Z,2.77
2022-11-27T13:13:49.073Z,2.60
2022-11-27T13:16:39.138Z,3.73
2022-11-27T13:19:28.893Z,3.10
2022-11-27T13:21:58.837Z,2.50
2022-11-27T13:24:29.648Z,2.73
2022-11-27T13:27:17.951Z,2.47
2022-11-27T13:29:52.613Z,3.10
2022-11-27T13:32:30.773Z,2.90
2022-11-27T13:35:06.011Z,3.03
2022-11-27T13:37:34.295Z,2.80
2022-11-27T13:40:24.427Z,3.10
2022-11-27T13:42:58.472Z,2.73
2022-11-27T13:45:33.462Z,3.13
2022-11-27T13:48:06.535Z,3.23
2022-11-27T13:50:45.538Z,2.70
2022-11-27T13:53:14.333Z,3.40
2022-11-27T13:55:55.366Z,2.80
2022-11-27T13:58:38.664Z,3.20
2022-11-27T14:01:24.608Z,3.77
2022-11-27T14:03:53.864Z,3.10
2022-11-27T14:06:27.131Z,3.10
2022-11-27T14:09:01.244Z,3.57
2022-11-27T14:11:35.315Z,3.67
2022-11-27T14:14:18.567Z,3.70
2022-11-27T14:16:59.102Z,2.87
2022-11-27T14:19:40.771Z,3.30
2022-11-27T14:23:12.377Z,3.60
2022-11-27T14:25:41.485Z,3.50
2022-11-27T14:28:25.614Z,3.53
2022-11-27T14:30:57.808Z,3.80
2022-11-27T14:33:33.200Z,4.00
2022-11-27T14:36:08.629Z,3.63
2022-11-27T14:38:38.040Z,4.10
2022-11-27T14:41:12.338Z,3.77
2022-11-27T14:43:40.732Z,3.33
2022-11-27T14:46:20.750Z,3.33
2022-11-27T14:48:59.784Z,3.53
2022-11-27T14:51:30.948Z,3.13
2022-11-27T14:54:02.464Z,4.23
2022-11-27T14:56:37.377Z,3.47
2022-11-27T14:59:07.459Z,4.03
2022-11-27T15:01:38.037Z,3.50
2022-11-27T15:04:46.072Z,4.10
2022-11-27T15:07:25.210Z,5.10
2022-11-27T15:09:57.556Z,4.07
2022-11-27T15:12:31.887Z,3.77
2022-11-27T15:15:09.406Z,5.47
2022-11-27T15:17:41.030Z,4.57
2022-11-27T15:20:32.732Z,5.27
2022-11-27T15:23:02.381Z,4.97
2022-11-27T15:25:42.542Z,4.00
2022-11-27T15:28:40.705Z,3.47
2022-11-27T15:31:35.079Z,4.40
2022-11-27T15:34:21.676Z,3.67
2022-11-27T15:36:53.854Z,3.17
2022-11-27T15:39:28.340Z,2.63
2022-11-27T15:42:01.893Z,2.63
2022-11-27T15:44:32.568Z,2.40
2022-11-27T15:47:06.086Z,1.70
2022-11-27T15:49:34.594Z,2.37
2022-11-27T15:52:03.001Z,2.07
2022-11-27T15:54:31.340Z,2.00
2022-11-27T15:56:59.846Z,2.03
2022-11-27T15:59:30.120Z,1.90
2022-11-27T16:01:58.811Z,1.73
2022-11-27T16:04:27.357Z,1.53
2022-11-27T16:06:55.852Z,1.70
2022-11-27T16:09:24.284Z,1.30
2022-11-27T16:11:52.712Z,1.53
2022-11-27T16:14:21.109Z,1.57
2022-11-27T16:16:49.540Z,1.33
2022-11-27T16:19:18.029Z,1.50
2022-11-27T16:21:46.509Z,1.93
2022-11-27T16:24:15.965Z,2.23
2022-11-27T16:26:44.416Z,1.87
2022-11-27T16:29:12.920Z,2.00
2022-11-27T16:31:41.946Z,2.07
2022-11-27T16:34:10.468Z,2.10
2022-11-27T16:36:41.199Z,2.37
2022-11-27T16:39:09.577Z,1.87
2022-11-27T16:41:37.997Z,2.50
2022-11-27T16:44:13.206Z,2.10
2022-11-27T16:46:42.557Z,2.33
2022-11-27T16:49:11.194Z,2.60
2022-11-27T16:51:40.915Z,2.57
2022-11-27T16:54:12.745Z,2.27
2022-11-27T16:56:41.554Z,1.93
2022-11-27T16:59:11.033Z,2.07
2022-11-27T17:01:41.853Z,2.23
2022-11-27T17:04:15.901Z,2.20
2022-11-27T17:06:44.320Z,1.70
2022-11-27T17:09:12.772Z,1.57
2022-11-27T17:11:44.576Z,1.90
2022-11-27T17:14:13.049Z,2.90
2022-11-27T17:16:44.413Z,2.00
2022-11-27T17:19:17.759Z,1.80
2022-11-27T17:21:46.253Z,1.70
2022-11-27T17:24:16.529Z,2.00
2022-11-27T17:26:46.280Z,2.10
2022-11-27T17:29:17.660Z,2.00
2022-11-27T17:31:46.172Z,2.40
2022-11-27T17:34:15.772Z,2.47
2022-11-27T17:36:45.864Z,1.50
2022-11-27T17:39:15.708Z,1.70
2022-11-27T17:41:47.210Z,1.73
2022-11-27T17:44:15.826Z,2.00
2022-11-27T17:46:48.880Z,1.87
2022-11-27T17:49:17.887Z,1.60
2022-11-27T17:51:46.268Z,2.50
2022-11-27T17:54:14.616Z,3.03
2022-11-27T17:56:43.177Z,5.87
2022-11-27T17:59:11.830Z,3.13
2022-11-27T18:01:40.391Z,5.97
2022-11-27T18:04:11.137Z,9.20
2022-11-27T18:06:39.553Z,2.80
2022-11-27T18:09:07.935Z,3.97
2022-11-27T18:11:36.361Z,9.10
2022-11-27T18:14:06.093Z,3.50
2022-11-27T18:16:39.365Z,3.60
2022-11-27T18:19:11.341Z,2.60
2022-11-27T18:21:40.665Z,3.77
2022-11-27T18:24:25.273Z,7.80
2022-11-27T18:27:12.312Z,6.30
2022-11-27T18:29:43.116Z,6.17
2022-11-27T18:32:13.020Z,5.50
2022-11-27T18:34:43.156Z,4.60
2022-11-27T18:37:12.728Z,5.73
2022-11-27T18:39:42.126Z,4.87
2022-11-27T18:42:10.907Z,4.30
2022-11-27T18:44:44.314Z,4.83
2022-11-27T18:47:15.214Z,4.80
2022-11-27T18:49:44.340Z,3.07
2022-11-27T18:52:13.124Z,2.13
2022-11-27T18:54:41.630Z,2.23
2022-11-27T18:57:10.965Z,3.07
2022-11-27T18:59:39.660Z,2.83
2022-11-27T19:02:08.805Z,4.10
2022-11-27T19:04:41.192Z,3.20
2022-11-27T19:07:09.901Z,4.20
2022-11-27T19:09:38.290Z,6.40
2022-11-27T19:12:07.013Z,5.80
2022-11-27T19:14:35.731Z,4.13
2022-11-27T19:17:04.133Z,4.83
2022-11-27T19:22:22.743Z,7.70
2022-11-27T19:24:51.353Z,8.23
2022-11-27T19:27:19.836Z,5.80
2022-11-27T19:29:49.688Z,6.50
2022-11-27T19:32:18.136Z,6.07
2022-11-27T19:34:46.652Z,5.63
2022-11-27T19:37:14.995Z,3.20
2022-11-27T19:39:43.481Z,3.30
2022-11-27T19:42:11.888Z,2.50
2022-11-27T19:44:40.557Z,3.47
2022-11-27T19:47:10.536Z,3.87
2022-11-27T19:49:39.001Z,4.50
2022-11-27T19:52:07.626Z,2.93
2022-11-27T19:54:36.007Z,3.67
2022-11-27T19:57:05.107Z,2.50
2022-11-27T19:59:33.529Z,2.40
2022-11-27T20:02:02.125Z,3.67
2022-11-27T20:04:30.659Z,3.40
2022-11-27T20:06:59.017Z,3.10
2022-11-27T20:09:27.464Z,3.20
2022-11-27T20:11:56.119Z,3.70
2022-11-27T20:14:24.795Z,3.87
2022-11-27T20:16:53.489Z,6.37
2022-11-27T20:19:21.886Z,4.10
2022-11-27T20:21:50.383Z,4.47
2022-11-27T20:24:18.773Z,7.00
2022-11-27T20:26:47.193Z,10.60
2022-11-27T20:29:16.655Z,25.70
2022-11-27T20:31:45.699Z,7.03
2022-11-27T20:34:22.887Z,4.77
2022-11-27T20:36:51.453Z,5.10
2022-11-27T20:39:21.845Z,4.03
2022-11-27T20:41:51.902Z,3.67
2022-11-27T20:44:20.847Z,4.10
2022-11-27T20:46:49.902Z,6.60
2022-11-27T20:49:18.712Z,5.43
2022-11-27T20:51:49.668Z,5.90
2022-11-27T20:54:18.810Z,4.90
2022-11-27T20:56:48.463Z,4.87
2022-11-27T20:59:16.889Z,2.97
2022-11-27T21:01:45.328Z,2.40
2022-11-27T21:04:26.377Z,4.10
2022-11-27T21:06:54.899Z,4.23
2022-11-27T21:09:23.352Z,2.57
2022-11-27T21:11:51.905Z,3.23
2022-11-27T21:14:21.928Z,3.23
2022-11-27T21:16:51.926Z,2.70
2022-11-27T21:19:24.230Z,2.00
2022-11-27T21:21:53.911Z,2.13
2022-11-27T21:24:23.755Z,6.17
2022-11-27T21:26:54.364Z,3.97
2022-11-27T21:29:26.151Z,3.63
2022-11-27T21:31:54.821Z,2.10
2022-11-27T21:34:23.765Z,4.03
2022-11-27T21:36:52.198Z,4.27
2022-11-27T21:39:25.399Z,4.70
2022-11-27T21:41:55.933Z,3.50
2022-11-27T21:44:25.631Z,4.73
2022-11-27T21:46:54.047Z,6.70
2022-11-27T21:49:22.957Z,7.00
2022-11-27T21:51:55.624Z,2.23
2022-11-27T21:54:24.313Z,7.40
2022-11-27T21:56:53.615Z,18.23
2022-11-27T21:59:22.529Z,33.20
2022-11-27T22:01:51.037Z,4.60
2022-11-27T22:04:20.011Z,3.50
2022-11-27T22:06:48.892Z,3.10
2022-11-27T22:09:17.349Z,3.20
2022-11-27T22:11:47.152Z,3.33
2022-11-27T22:14:17.101Z,2.60
2022-11-27T22:16:46.814Z,3.37
2022-11-27T22:19:15.742Z,14.00
2022-11-27T22:21:45.402Z,9.50
2022-11-27T22:24:18.769Z,6.13
2022-11-27T22:26:48.057Z,4.23
2022-11-27T22:29:16.703Z,5.50
2022-11-27T22:31:45.119Z,5.83
2022-11-27T22:34:13.713Z,4.10
2022-11-27T22:36:42.098Z,4.70
2022-11-27T22:39:10.647Z,4.20
2022-11-27T22:41:40.948Z,5.33
2022-11-27T22:44:18.800Z,15.33
2022-11-27T22:46:47.756Z,12.93
2022-11-27T22:49:18.578Z,33.93
2022-11-27T22:51:48.052Z,6.00
2022-11-27T22:54:17.730Z,4.90
2022-11-27T22:56:49.121Z,5.97
2022-11-27T22:59:32.327Z,22.00
2022-11-27T23:02:02.209Z,11.30
2022-11-27T23:04:30.724Z,9.13
2022-11-27T23:06:59.217Z,6.40
2022-11-27T23:09:27.975Z,6.80
2022-11-27T23:11:57.730Z,7.13
2022-11-27T23:14:27.567Z,5.43
2022-11-27T23:16:56.040Z,6.20
2022-11-27T23:19:24.569Z,6.27
2022-11-27T23:21:53.109Z,5.87
2022-11-27T23:24:21.741Z,4.87
2022-11-27T23:26:50.222Z,4.60
2022-11-27T23:29:18.638Z,4.80
2022-11-27T23:31:47.101Z,6.70
2022-11-27T23:34:16.849Z,5.60
2022-11-27T23:36:45.523Z,4.87
2022-11-27T23:39:14.866Z,9.60
2022-11-27T23:41:43.708Z,9.97
2022-11-27T23:44:12.298Z,11.97
2022-11-27T23:46:41.366Z,14.13
2022-11-27T23:49:09.823Z,12.10
2022-11-27T23:51:38.345Z,14.00
2022-11-27T23:54:11.331Z,16.33
2022-11-27T23:56:40.510Z,15.27
2022-11-27T23:59:09.214Z,11.03
